Time,TemperatureF,DewpointF,PressureIn,WindDirection,WindDirectionDegrees,WindSpeedMPH,WindSpeedGustMPH,Humidity,HourlyPrecipIn,Conditions,Clouds,dailyrainin,SoftwareType,DateUTC
2013-02-27 00:11:00,21.2,20.0,29.95,NNW,335,9.0,24.0,94,0.00,,,0.00,weatherlink.com 1.10,2013-02-27 06:11:00,
2013-02-27 00:26:00,21.0,20.0,29.95,NNE,29,19.0,24.0,94,0.00,,,0.00,weatherlink.com 1.10,2013-02-27 06:26:00,
2013-02-27 00:41:00,20.8,19.0,29.95,NNW,333,12.0,19.0,94,0.00,,,0.00,weatherlink.com 1.10,2013-02-27 06:41:00,
2013-02-27 00:56:00,20.6,19.0,29.95,NNW,333,10.0,24.0,93,0.00,,,0.00,weatherlink.com 1.10,2013-02-27 06:56:00,
2013-02-27 01:11:00,20.2,19.0,29.95,NW,315,12.0,22.0,93,0.00,,,0.00,weatherlink.com 1.10,2013-02-27 07:11:00,
2013-02-27 01:26:00,19.7,18.0,29.95,NNW,333,15.0,20.0,93,0.00,,,0.00,weatherlink.com 1.10,2013-02-27 07:26:00,
2013-02-27 01:41:00,19.3,18.0,29.94,NW,325,16.0,23.0,93,0.00,,,0.00,weatherlink.com 1.10,2013-02-27 07:41:00,
2013-02-27 01:56:00,19.0,17.0,29.94,NNW,339,17.0,23.0,93,0.00,,,0.00,weatherlink.com 1.10,2013-02-27 07:56:00,
2013-02-27 02:11:00,19.0,17.0,29.94,NW,324,17.0,20.0,92,0.00,,,0.00,weatherlink.com 1.10,2013-02-27 08:11:00,
2013-02-27 02:26:00,18.9,17.0,29.94,NNE,33,15.0,21.0,92,0.00,,,0.00,weatherlink.com 1.10,2013-02-27 08:26:00,
2013-02-27 02:42:00,18.9,17.0,29.94,NW,304,14.0,19.0,92,0.00,,,0.00,weatherlink.com 1.10,2013-02-27 08:42:00,
2013-02-27 02:57:00,18.9,17.0,29.94,WNW,286,11.0,17.0,91,0.00,,,0.00,weatherlink.com 1.10,2013-02-27 08:57:00,
2013-02-27 03:12:00,18.8,17.0,29.94,NNE,13,15.0,20.0,91,0.00,,,0.00,weatherlink.com 1.10,2013-02-27 09:12:00,
2013-02-27 03:27:00,18.8,17.0,29.94,WNW,297,13.0,19.0,91,0.00,,,0.00,weatherlink.com 1.10,2013-02-27 09:27:00,
2013-02-27 03:42:00,18.8,16.0,29.93,NNE,32,15.0,21.0,90,0.00,,,0.00,weatherlink.com 1.10,2013-02-27 09:42:00,
2013-02-27 03:57:00,18.8,16.0,29.93,North,359,20.0,23.0,90,0.00,,,0.00,weatherlink.com 1.10,2013-02-27 09:57:00,
2013-02-27 04:12:00,18.9,17.0,29.93,NNE,32,8.0,20.0,90,0.00,,,0.00,weatherlink.com 1.10,2013-02-27 10:12:00,
2013-02-27 04:27:00,19.2,17.0,29.93,NW,312,10.0,23.0,90,0.00,,,0.00,weatherlink.com 1.10,2013-02-27 10:27:00,
2013-02-27 04:42:00,19.6,17.0,29.93,NNW,328,12.0,19.0,90,0.00,,,0.00,weatherlink.com 1.10,2013-02-27 10:42:00,
2013-02-27 04:57:00,19.8,17.0,29.94,North,8,11.0,21.0,89,0.00,,,0.00,weatherlink.com 1.10,2013-02-27 10:57:00,
2013-02-27 05:12:00,20.0,17.0,29.94,NW,308,15.0,21.0,89,0.00,,,0.00,weatherlink.com 1.10,2013-02-27 11:12:00,
2013-02-27 05:27:00,20.0,17.0,29.94,North,5,12.0,23.0,88,0.00,,,0.00,weatherlink.com 1.10,2013-02-27 11:27:00,
2013-02-27 05:42:00,19.7,17.0,29.94,NW,320,13.0,20.0,88,0.00,,,0.00,weatherlink.com 1.10,2013-02-27 11:42:00,
2013-02-27 05:57:00,19.5,17.0,29.95,North,352,6.0,20.0,89,0.00,,,0.00,weatherlink.com 1.10,2013-02-27 11:57:00,
2013-02-27 06:12:00,19.3,16.0,29.95,NW,304,14.0,21.0,88,0.00,,,0.00,weatherlink.com 1.10,2013-02-27 12:12:00,
2013-02-27 06:27:00,19.3,16.0,29.95,NNW,331,10.0,22.0,88,0.00,,,0.00,weatherlink.com 1.10,2013-02-27 12:27:00,
2013-02-27 06:42:00,19.4,16.0,29.95,NW,309,13.0,22.0,88,0.00,,,0.00,weatherlink.com 1.10,2013-02-27 12:42:00,
2013-02-27 06:57:00,19.3,16.0,29.96,NNW,331,15.0,21.0,88,0.00,,,0.00,weatherlink.com 1.10,2013-02-27 12:57:00,
2013-02-27 07:12:00,19.1,16.0,29.95,WNW,293,13.0,22.0,88,0.00,,,0.00,weatherlink.com 1.10,2013-02-27 13:12:00,
2013-02-27 07:27:00,19.1,16.0,29.96,North,349,13.0,20.0,88,0.00,,,0.00,weatherlink.com 1.10,2013-02-27 13:27:00,
2013-02-27 07:42:00,19.4,16.0,29.96,North,6,12.0,20.0,88,0.00,,,0.00,weatherlink.com 1.10,2013-02-27 13:42:00,
2013-02-27 07:57:00,19.7,17.0,29.97,NNW,331,11.0,16.0,87,0.00,,,0.00,weatherlink.com 1.10,2013-02-27 13:57:00,
2013-02-27 08:12:00,20.0,17.0,29.97,NNE,20,16.0,17.0,87,0.00,,,0.00,weatherlink.com 1.10,2013-02-27 14:12:00,
2013-02-27 08:27:00,20.1,17.0,29.98,NW,323,15.0,19.0,87,0.00,,,0.00,weatherlink.com 1.10,2013-02-27 14:27:00,
2013-02-27 08:42:00,20.2,17.0,29.98,North,354,15.0,22.0,86,0.00,,,0.00,weatherlink.com 1.10,2013-02-27 14:42:00,
2013-02-27 08:57:00,20.3,17.0,29.98,NW,319,11.0,21.0,85,0.00,,,0.00,weatherlink.com 1.10,2013-02-27 14:57:00,
2013-02-27 09:12:00,20.6,17.0,29.99,NNW,346,8.0,18.0,84,0.00,,,0.00,weatherlink.com 1.10,2013-02-27 15:12:00,
2013-02-27 09:27:00,21.0,17.0,29.99,NW,326,12.0,21.0,84,0.00,,,0.00,weatherlink.com 1.10,2013-02-27 15:27:00,
2013-02-27 09:42:00,21.7,17.0,29.99,North,11,15.0,20.0,83,0.00,,,0.00,weatherlink.com 1.10,2013-02-27 15:42:00,
2013-02-27 09:57:00,22.3,18.0,29.99,SSW,203,11.0,24.0,82,0.00,,,0.00,weatherlink.com 1.10,2013-02-27 15:57:00,
2013-02-27 10:12:00,22.9,18.0,30.00,NNW,347,7.0,21.0,81,0.00,,,0.00,weatherlink.com 1.10,2013-02-27 16:12:00,
2013-02-27 10:27:00,24.2,19.0,30.00,North,353,13.0,24.0,81,0.00,,,0.00,weatherlink.com 1.10,2013-02-27 16:27:00,
2013-02-27 10:42:00,25.2,20.0,30.00,WNW,284,15.0,24.0,80,0.00,,,0.00,weatherlink.com 1.10,2013-02-27 16:42:00,
2013-02-27 10:57:00,25.6,20.0,30.00,NW,321,18.0,25.0,79,0.00,,,0.00,weatherlink.com 1.10,2013-02-27 16:57:00,
2013-02-27 11:12:00,26.2,20.0,29.99,NW,315,18.0,30.0,78,0.00,,,0.00,weatherlink.com 1.10,2013-02-27 17:12:00,
2013-02-27 11:27:00,27.1,21.0,30.00,NW,314,11.0,30.0,78,0.00,,,0.00,weatherlink.com 1.10,2013-02-27 17:27:00,
2013-02-27 11:43:00,28.0,22.0,29.99,NW,326,24.0,29.0,78,0.00,,,0.00,weatherlink.com 1.10,2013-02-27 17:43:00,
2013-02-27 12:13:00,29.4,23.0,29.99,NNW,337,20.0,29.0,77,0.00,,,0.00,weatherlink.com 1.10,2013-02-27 18:13:00,
2013-02-27 12:28:00,30.4,24.0,29.99,NNW,340,21.0,23.0,77,0.00,,,0.00,weatherlink.com 1.10,2013-02-27 18:28:00,
2013-02-27 12:43:00,30.1,24.0,29.99,West,280,10.0,27.0,77,0.00,,,0.00,weatherlink.com 1.10,2013-02-27 18:43:00,
2013-02-27 12:58:00,30.0,23.0,29.98,NW,308,18.0,29.0,76,0.00,,,0.00,weatherlink.com 1.10,2013-02-27 18:58:00,
2013-02-27 13:13:00,30.3,24.0,29.99,NNW,331,20.0,29.0,76,0.00,,,0.00,weatherlink.com 1.10,2013-02-27 19:13:00,
2013-02-27 13:28:00,30.6,24.0,29.99,North,354,18.0,27.0,75,0.00,,,0.00,weatherlink.com 1.10,2013-02-27 19:28:00,
2013-02-27 13:43:00,30.5,23.0,29.99,NNW,328,20.0,27.0,75,0.00,,,0.00,weatherlink.com 1.10,2013-02-27 19:43:00,
2013-02-27 13:58:00,30.8,24.0,29.98,NW,326,20.0,25.0,75,0.00,,,0.00,weatherlink.com 1.10,2013-02-27 19:58:00,
2013-02-27 14:13:00,32.0,24.0,29.99,NNW,333,16.0,31.0,72,0.00,,,0.00,weatherlink.com 1.10,2013-02-27 20:13:00,
2013-02-27 14:28:00,32.8,25.0,29.99,NNW,331,21.0,27.0,73,0.00,,,0.00,weatherlink.com 1.10,2013-02-27 20:28:00,
2013-02-27 14:43:00,32.9,25.0,30.00,West,278,20.0,33.0,72,0.00,,,0.00,weatherlink.com 1.10,2013-02-27 20:43:00,
2013-02-27 14:58:00,33.3,25.0,30.00,North,10,22.0,35.0,71,0.00,,,0.00,weatherlink.com 1.10,2013-02-27 20:58:00,
2013-02-27 15:13:00,33.1,24.0,30.00,NNW,335,26.0,34.0,70,0.00,,,0.00,weatherlink.com 1.10,2013-02-27 21:13:00,
2013-02-27 15:28:00,33.7,25.0,30.00,NNW,333,26.0,34.0,70,0.00,,,0.00,weatherlink.com 1.10,2013-02-27 21:28:00,
2013-02-27 15:43:00,33.7,24.0,30.00,NE,43,25.0,33.0,68,0.00,,,0.00,weatherlink.com 1.10,2013-02-27 21:43:00,
2013-02-27 15:58:00,34.1,25.0,30.00,NW,326,26.0,29.0,68,0.00,,,0.00,weatherlink.com 1.10,2013-02-27 21:58:00,
2013-02-27 16:13:00,34.0,23.0,30.00,NW,320,22.0,30.0,65,0.00,,,0.00,weatherlink.com 1.10,2013-02-27 22:13:00,
2013-02-27 16:28:00,33.9,23.0,30.00,NNW,331,22.0,34.0,65,0.00,,,0.00,weatherlink.com 1.10,2013-02-27 22:28:00,
2013-02-27 16:43:00,32.8,23.0,30.01,NNE,13,25.0,32.0,67,0.00,,,0.00,weatherlink.com 1.10,2013-02-27 22:43:00,
2013-02-27 16:58:00,31.0,23.0,30.02,NNW,341,22.0,34.0,73,0.00,,,0.00,weatherlink.com 1.10,2013-02-27 22:58:00,
2013-02-27 17:13:00,30.0,24.0,30.02,NNW,328,23.0,33.0,78,0.00,,,0.00,weatherlink.com 1.10,2013-02-27 23:13:00,
2013-02-27 17:28:00,29.0,24.0,30.02,NW,326,21.0,34.0,81,0.00,,,0.00,weatherlink.com 1.10,2013-02-27 23:28:00,
2013-02-27 17:43:00,28.3,24.0,30.02,North,357,22.0,34.0,82,0.00,,,0.00,weatherlink.com 1.10,2013-02-27 23:43:00,
2013-02-27 17:58:00,27.4,23.0,30.03,NW,324,22.0,33.0,82,0.00,,,0.00,weatherlink.com 1.10,2013-02-27 23:58:00,
2013-02-27 18:13:00,26.6,22.0,30.04,NW,314,18.0,30.0,83,0.00,,,0.00,weatherlink.com 1.10,2013-02-28 00:13:00,
2013-02-27 18:28:00,25.9,22.0,30.05,NNW,331,15.0,29.0,84,0.00,,,0.00,weatherlink.com 1.10,2013-02-28 00:28:00,
2013-02-27 18:43:00,25.4,22.0,30.05,NW,309,24.0,31.0,85,0.00,,,0.00,weatherlink.com 1.10,2013-02-28 00:43:00,
2013-02-27 18:58:00,24.7,21.0,30.06,NNW,331,23.0,35.0,86,0.00,,,0.00,weatherlink.com 1.10,2013-02-28 00:58:00,
2013-02-27 19:13:00,23.9,21.0,30.07,NE,34,22.0,33.0,87,0.00,,,0.00,weatherlink.com 1.10,2013-02-28 01:13:00,
2013-02-27 19:28:00,23.0,20.0,30.07,NW,326,11.0,25.0,88,0.00,,,0.00,weatherlink.com 1.10,2013-02-28 01:28:00,
2013-02-27 19:43:00,22.6,20.0,30.07,WNW,301,22.0,25.0,88,0.00,,,0.00,weatherlink.com 1.10,2013-02-28 01:43:00,
2013-02-27 19:58:00,22.3,19.0,30.07,NW,308,18.0,27.0,88,0.00,,,0.00,weatherlink.com 1.10,2013-02-28 01:58:00,
2013-02-27 20:13:00,22.0,19.0,30.07,NNW,331,19.0,27.0,89,0.00,,,0.00,weatherlink.com 1.10,2013-02-28 02:13:00,
2013-02-27 20:28:00,22.1,19.0,30.07,NE,40,24.0,30.0,89,0.00,,,0.00,weatherlink.com 1.10,2013-02-28 02:28:00,
2013-02-27 20:44:00,22.4,20.0,30.08,NNW,347,22.0,30.0,90,0.00,,,0.00,weatherlink.com 1.10,2013-02-28 02:44:00,
2013-02-27 20:59:00,22.4,20.0,30.08,North,359,19.0,33.0,90,0.00,,,0.00,weatherlink.com 1.10,2013-02-28 02:59:00,
2013-02-27 21:14:00,22.3,20.0,30.09,North,359,22.0,30.0,90,0.00,,,0.00,weatherlink.com 1.10,2013-02-28 03:14:00,
2013-02-27 21:29:00,22.3,20.0,30.09,WNW,301,18.0,27.0,90,0.00,,,0.00,weatherlink.com 1.10,2013-02-28 03:29:00,
2013-02-27 21:44:00,22.4,20.0,30.09,NNW,329,17.0,27.0,91,0.00,,,0.00,weatherlink.com 1.10,2013-02-28 03:44:00,
2013-02-27 21:59:00,22.5,20.0,30.09,WNW,302,19.0,27.0,91,0.00,,,0.00,weatherlink.com 1.10,2013-02-28 03:59:00,
2013-02-27 22:28:00,22.8,21.0,30.10,NW,326,15.0,25.0,91,0.00,,,0.00,weatherlink.com 1.10,2013-02-28 04:28:00,
2013-02-27 22:43:00,22.9,21.0,30.09,WNW,291,17.0,27.0,91,0.00,,,0.00,weatherlink.com 1.10,2013-02-28 04:43:00,
2013-02-27 23:13:00,22.7,21.0,30.11,NNW,335,13.0,28.0,91,0.00,,,0.00,weatherlink.com 1.10,2013-02-28 05:13:00,
2013-02-27 23:28:00,22.9,21.0,30.11,NNW,333,7.0,24.0,91,0.00,,,0.00,weatherlink.com 1.10,2013-02-28 05:28:00,
2013-02-27 23:43:00,22.8,20.0,30.11,NNW,338,19.0,26.0,90,0.00,,,0.00,weatherlink.com 1.10,2013-02-28 05:43:00,
2013-02-27 23:58:00,22.7,20.0,30.11,WNW,297,13.0,24.0,90,0.00,,,0.00,weatherlink.com 1.10,2013-02-28 05:58:00,